createdAt,value
2022-10-29T00:04:50.057Z,101612.00
2022-10-29T00:12:25.063Z,101609.22
2022-10-29T00:20:00.061Z,101606.63
2022-10-29T00:27:35.095Z,101631.84
2022-10-29T00:35:08.879Z,101631.16
2022-10-29T00:42:43.884Z,101639.41
2022-10-29T00:50:17.531Z,101630.53
2022-10-29T00:57:56.466Z,101628.28
2022-10-29T01:05:32.307Z,101615.06
2022-10-29T01:13:20.165Z,101627.78
2022-10-29T01:21:30.657Z,101627.91
2022-10-29T01:29:21.070Z,101622.63
2022-10-29T01:37:01.828Z,101616.34
2022-10-29T01:44:40.567Z,101628.75
2022-10-29T01:52:17.664Z,101648.31
2022-10-29T01:59:56.103Z,101652.59
2022-10-29T02:07:46.240Z,101655.94
2022-10-29T02:15:24.461Z,101660.31
2022-10-29T02:22:59.918Z,101669.09
2022-10-29T02:30:33.635Z,101697.66
2022-10-29T02:38:08.762Z,101692.25
2022-10-29T02:45:42.392Z,101698.56
2022-10-29T02:53:17.439Z,101703.09
2022-10-29T03:00:51.539Z,101695.06
2022-10-29T03:08:26.490Z,101687.09
2022-10-29T03:16:00.139Z,101687.91
2022-10-29T03:23:35.180Z,101684.97
2022-10-29T03:31:08.600Z,101697.28
2022-10-29T03:38:43.484Z,101699.78
2022-10-29T03:46:17.071Z,101711.28
2022-10-29T03:53:52.119Z,101700.41
2022-10-29T04:01:26.697Z,101719.97
2022-10-29T04:09:01.779Z,101723.44
2022-10-29T04:16:35.189Z,101720.63
2022-10-29T04:32:04.642Z,101709.66
2022-10-29T04:39:39.745Z,101698.75
2022-10-29T04:47:13.446Z,101703.13
2022-10-29T04:54:48.547Z,101718.28
2022-10-29T05:02:22.167Z,101724.44
2022-10-29T05:09:57.137Z,101726.16
2022-10-29T05:17:30.600Z,101735.97
2022-10-29T05:25:06.532Z,101743.06
2022-10-29T05:32:40.091Z,101729.53
2022-10-29T05:40:15.289Z,101738.34
2022-10-29T05:47:49.515Z,101739.97
2022-10-29T05:55:24.788Z,101729.13
2022-10-29T06:02:59.479Z,101732.38
2022-10-29T06:10:34.797Z,101739.34
2022-10-29T06:18:08.855Z,101728.59
2022-10-29T06:25:43.855Z,101747.28
2022-10-29T06:33:17.753Z,101749.91
2022-10-29T06:40:54.813Z,101749.97
2022-10-29T06:48:28.689Z,101741.09
2022-10-29T06:56:03.811Z,101762.66
2022-10-29T07:03:37.486Z,101763.03
2022-10-29T07:11:13.248Z,101755.41
2022-10-29T07:18:46.897Z,101771.81
2022-10-29T07:26:21.907Z,101772.88
2022-10-29T07:33:55.452Z,101775.72
2022-10-29T07:41:30.540Z,101783.13
2022-10-29T07:49:04.473Z,101800.44
2022-10-29T07:56:42.376Z,101805.44
2022-10-29T08:04:19.616Z,101801.56
2022-10-29T08:11:54.836Z,101793.22
2022-10-29T08:19:30.022Z,101800.63
2022-10-29T08:27:05.249Z,101796.47
2022-10-29T08:34:40.990Z,101793.31
2022-10-29T08:42:29.567Z,101798.16
2022-10-29T08:50:12.139Z,101802.03
2022-10-29T08:57:53.581Z,101804.03
2022-10-29T09:05:33.909Z,101801.47
2022-10-29T09:13:26.804Z,101798.88
2022-10-29T09:21:09.267Z,101806.19
2022-10-29T09:28:55.126Z,101807.16
2022-10-29T09:36:31.879Z,101801.88
2022-10-29T09:44:16.094Z,101796.50
2022-10-29T09:51:54.704Z,101790.22
2022-10-29T09:59:32.999Z,101796.56
2022-10-29T10:07:08.396Z,101792.03
2022-10-29T10:14:44.616Z,101783.06
2022-10-29T10:22:20.916Z,101772.28
2022-10-29T10:30:16.019Z,101756.97
2022-10-29T10:37:49.734Z,101744.47
2022-10-29T10:45:35.125Z,101755.28
2022-10-29T10:53:17.535Z,101757.13
2022-10-29T11:00:59.172Z,101758.94
2022-10-29T11:08:37.886Z,101748.13
2022-10-29T11:16:20.934Z,101741.81
2022-10-29T11:24:02.893Z,101722.88
2022-10-29T11:31:46.353Z,101707.53
2022-10-29T11:39:24.935Z,101691.31
2022-10-29T11:47:14.053Z,101686.69
2022-10-29T11:55:00.585Z,101685.72
2022-10-29T12:02:52.448Z,101684.81
2022-10-29T12:10:41.108Z,101666.69
2022-10-29T12:18:26.752Z,101667.56
2022-10-29T12:26:06.580Z,101652.16
2022-10-29T12:33:49.360Z,101657.56
2022-10-29T12:41:27.041Z,101650.25
2022-10-29T12:49:12.109Z,101636.66
2022-10-29T12:56:49.519Z,101626.72
2022-10-29T13:04:28.606Z,101621.25
2022-10-29T13:12:03.981Z,101613.13
2022-10-29T13:19:49.435Z,101600.44
2022-10-29T13:27:36.210Z,101589.53
2022-10-29T13:35:42.191Z,101605.78
2022-10-29T13:43:18.085Z,101597.66
2022-10-29T13:50:55.757Z,101594.06
2022-10-29T13:58:33.448Z,101593.25
2022-10-29T14:06:14.766Z,101589.66
2022-10-29T14:13:50.435Z,101577.97
2022-10-29T14:21:28.227Z,101587.06
2022-10-29T14:29:15.210Z,101582.59
2022-10-29T14:36:52.385Z,101589.81
2022-10-29T14:44:28.743Z,101591.72
2022-10-29T14:52:07.417Z,101584.50
2022-10-29T14:59:48.608Z,101580.97
2022-10-29T15:07:35.500Z,101598.16
2022-10-29T15:15:10.846Z,101577.41
2022-10-29T15:22:46.563Z,101573.84
2022-10-29T15:30:21.286Z,101565.78
2022-10-29T15:37:56.746Z,101566.75
2022-10-29T15:45:30.577Z,101580.34
2022-10-29T15:53:07.955Z,101582.19
2022-10-29T16:00:41.818Z,101584.88
2022-10-29T16:08:26.168Z,101584.03
2022-10-29T16:15:59.851Z,101585.84
2022-10-29T16:23:37.649Z,101574.13
2022-10-29T16:31:20.508Z,101577.75
2022-10-29T16:38:55.663Z,101571.50
2022-10-29T16:46:29.132Z,101572.38
2022-10-29T16:54:04.295Z,101581.41
2022-10-29T17:01:37.921Z,101574.22
2022-10-29T17:09:14.212Z,101573.31
2022-10-29T17:16:47.846Z,101585.03
2022-10-29T17:24:22.861Z,101591.31
2022-10-29T17:31:56.817Z,101592.19
2022-10-29T17:39:31.812Z,101592.16
2022-10-29T17:47:05.391Z,101583.19
2022-10-29T17:54:40.392Z,101581.38
2022-10-29T18:02:14.021Z,101572.34
2022-10-29T18:09:49.117Z,101566.00
2022-10-29T18:17:22.594Z,101577.69
2022-10-29T18:24:57.590Z,101572.22
2022-10-29T18:32:31.215Z,101574.00
2022-10-29T18:40:07.464Z,101591.00
2022-10-29T18:47:40.985Z,101575.63
2022-10-29T18:55:16.717Z,101572.00
2022-10-29T19:02:50.644Z,101578.22
2022-10-29T19:10:25.655Z,101567.41
2022-10-29T19:17:59.334Z,101564.66
2022-10-29T19:25:40.619Z,101550.22
2022-10-29T19:33:14.310Z,101553.78
2022-10-29T19:40:49.290Z,101532.13
2022-10-29T19:48:22.891Z,101523.09
2022-10-29T19:55:58.191Z,101531.09
2022-10-29T20:03:32.058Z,101545.44
2022-10-29T20:11:07.846Z,101548.03
2022-10-29T20:18:41.499Z,101548.88
2022-10-29T20:26:16.483Z,101553.31
2022-10-29T20:33:50.374Z,101555.09
2022-10-29T20:41:25.480Z,101555.91
2022-10-29T20:48:59.167Z,101563.03
2022-10-29T20:56:36.521Z,101562.97
2022-10-29T21:04:10.188Z,101555.75
2022-10-29T21:11:45.220Z,101556.53
2022-10-29T21:19:18.752Z,101555.63
2022-10-29T21:26:53.719Z,101565.44
2022-10-29T21:34:27.636Z,101565.41
2022-10-29T21:42:02.609Z,101560.91
2022-10-29T21:49:36.145Z,101556.34
2022-10-29T21:57:11.109Z,101533.00
2022-10-29T22:04:44.760Z,101532.94
2022-10-29T22:12:19.882Z,101532.94
2022-10-29T22:19:53.476Z,101525.75
2022-10-29T22:27:28.462Z,101508.66
2022-10-29T22:35:02.074Z,101521.19
2022-10-29T22:42:37.427Z,101516.66
2022-10-29T22:50:13.837Z,101531.00
2022-10-29T22:57:48.885Z,101527.38
2022-10-29T23:05:22.413Z,101532.69
2022-10-29T23:12:57.471Z,101529.97
2022-10-29T23:20:30.974Z,101530.81
2022-10-29T23:28:05.979Z,101524.53
2022-10-29T23:35:39.362Z,101525.31
2022-10-29T23:43:15.277Z,101528.81
2022-10-29T23:50:49.922Z,101527.84
2022-10-29T23:58:25.191Z,101516.97
